Time;durP1;ratioP1;P1;durP2;ratioP2;P2;SDS_P1;SDS_P2;PMS_P1;PMS_P2;Temp;Humidity;BMP_temperature;BMP_pressure;BME280_temperature;BME280_humidity;BME280_pressure;Samples;Min_cycle;Max_cycle;Signal;HPM_P1;HPM_P2
2022/02/17 00:01:20;;;;;;;7.47;2.15;;;;;;;12.93;100.00;99252.44;5258715;28;20028;-73
2022/02/17 00:03:52;;;;;;;9.00;2.78;;;;;;;12.86;100.00;99266.31;5260441;28;20029;-73
2022/02/17 00:06:23;;;;;;;7.72;2.55;;;;;;;12.80;100.00;99243.38;5257583;28;20379;-73
2022/02/17 00:08:54;;;;;;;7.38;1.92;;;;;;;12.79;100.00;99252.25;5259171;28;20140;-72
2022/02/17 00:11:25;;;;;;;10.77;2.85;;;;;;;12.68;100.00;99231.69;5257973;28;20500;-73
2022/02/17 00:13:57;;;;;;;8.38;2.53;;;;;;;12.66;100.00;99231.91;5259045;28;20651;-72
2022/02/17 00:16:28;;;;;;;9.07;2.70;;;;;;;12.62;100.00;99240.34;5258612;28;20378;-71
2022/02/17 00:19:02;;;;;;;8.00;2.60;;;;;;;12.60;100.00;99248.38;5258420;28;20451;-72
2022/02/17 00:21:33;;;;;;;12.05;3.65;;;;;;;12.51;100.00;99252.13;5257306;28;20408;-72
2022/02/17 00:24:05;;;;;;;10.77;4.53;;;;;;;12.49;100.00;99254.09;5257867;28;20070;-71
2022/02/17 00:26:36;;;;;;;13.00;4.20;;;;;;;12.46;100.00;99257.06;5259684;28;20028;-72
2022/02/17 00:29:08;;;;;;;12.05;4.18;;;;;;;12.36;100.00;99244.22;5256952;28;20115;-73
2022/02/17 00:31:39;;;;;;;12.82;4.30;;;;;;;12.28;100.00;99260.06;5249321;28;20673;-73
2022/02/17 00:34:10;;;;;;;9.95;3.95;;;;;;;12.29;100.00;99264.31;5259318;28;20481;-72
2022/02/17 00:36:42;;;;;;;9.07;3.70;;;;;;;12.11;100.00;99280.41;5256939;28;20146;-72
2022/02/17 00:39:13;;;;;;;12.27;2.90;;;;;;;12.12;100.00;99284.69;5258555;28;20048;-73
2022/02/17 00:41:44;;;;;;;9.27;3.00;;;;;;;12.10;100.00;99291.09;5257436;28;20501;-73
2022/02/17 00:44:16;;;;;;;10.80;3.10;;;;;;;12.15;100.00;99313.19;5259385;28;20739;-74
2022/02/17 00:46:48;;;;;;;13.00;3.28;;;;;;;12.12;100.00;99297.81;5257550;28;20056;-74
2022/02/17 00:49:19;;;;;;;13.95;3.40;;;;;;;12.11;100.00;99311.09;5257343;28;20037;-74
2022/02/17 00:51:51;;;;;;;16.25;3.83;;;;;;;12.14;100.00;99295.00;5258947;28;20032;-74
2022/02/17 00:54:22;;;;;;;13.27;3.15;;;;;;;12.12;100.00;99310.94;5257252;28;20032;-74
2022/02/17 00:56:54;;;;;;;15.10;3.70;;;;;;;12.09;100.00;99311.28;5256166;28;20300;-74
2022/02/17 00:59:26;;;;;;;17.30;4.30;;;;;;;12.09;100.00;99307.84;5258426;28;20116;-74
2022/02/17 01:01:58;;;;;;;12.83;4.07;;;;;;;12.11;100.00;99300.59;5258905;28;20039;-74
2022/02/17 01:04:29;;;;;;;16.77;4.18;;;;;;;12.11;100.00;99316.34;5256789;28;20287;-74
2022/02/17 01:07:00;;;;;;;14.43;3.53;;;;;;;12.17;100.00;99318.28;5257660;28;20029;-74
2022/02/17 01:09:32;;;;;;;15.25;4.20;;;;;;;12.16;100.00;99335.84;5249923;28;20416;-74
2022/02/17 01:12:04;;;;;;;15.20;3.83;;;;;;;12.12;100.00;99333.72;5257672;28;20369;-74
2022/02/17 01:14:35;;;;;;;16.38;3.67;;;;;;;12.08;100.00;99356.06;5257993;28;20024;-74
2022/02/17 01:17:07;;;;;;;14.10;4.15;;;;;;;12.08;100.00;99341.13;5256776;28;20021;-74
2022/02/17 01:19:38;;;;;;;15.15;3.47;;;;;;;12.17;100.00;99347.16;5257213;28;20567;-74
2022/02/17 01:22:12;;;;;;;17.25;4.20;;;;;;;12.17;100.00;99355.84;5256283;28;20025;-73
2022/02/17 01:24:43;;;;;;;17.10;4.38;;;;;;;12.21;100.00;99347.63;5258246;28;20031;-72
2022/02/17 01:27:14;;;;;;;13.55;4.60;;;;;;;12.17;100.00;99361.09;5258246;28;20013;-73
2022/02/17 01:29:45;;;;;;;12.55;3.33;;;;;;;12.22;100.00;99352.69;5255173;28;20036;-73
2022/02/17 01:32:17;;;;;;;14.68;4.10;;;;;;;12.22;100.00;99381.56;5258446;28;20021;-73
2022/02/17 01:34:48;;;;;;;15.93;3.33;;;;;;;12.20;100.00;99396.69;5261685;28;20060;-73
2022/02/17 01:37:19;;;;;;;19.55;4.05;;;;;;;12.22;100.00;99386.00;5262267;28;20032;-73
2022/02/17 01:39:51;;;;;;;16.23;3.85;;;;;;;12.30;100.00;99420.06;5260435;28;20029;-73
2022/02/17 01:42:22;;;;;;;13.27;3.95;;;;;;;12.29;100.00;99428.94;5260212;28;20029;-72
2022/02/17 01:44:54;;;;;;;17.48;4.53;;;;;;;12.26;100.00;99421.41;5262381;28;20382;-73
2022/02/17 01:47:25;;;;;;;13.00;3.30;;;;;;;12.32;100.00;99426.78;5262386;28;20413;-73
2022/02/17 01:49:56;;;;;;;22.17;5.38;;;;;;;12.03;100.00;99456.34;5253117;28;20061;-72
2022/02/17 01:52:28;;;;;;;15.55;3.90;;;;;;;11.78;100.00;99499.41;5260613;28;20074;-73
2022/02/17 01:54:59;;;;;;;18.35;3.95;;;;;;;11.66;100.00;99491.09;5261654;28;20024;-73
2022/02/17 01:57:31;;;;;;;18.13;4.25;;;;;;;11.41;100.00;99467.59;5261453;28;20465;-72
2022/02/17 02:00:04;;;;;;;19.38;4.35;;;;;;;11.35;100.00;99478.75;5260142;28;20044;-73
2022/02/17 02:02:36;;;;;;;;;;;;;;;11.62;100.00;99495.06;5262371;28;20028;-73
2022/02/17 02:05:07;;;;;;;14.73;3.50;;;;;;;11.31;100.00;99464.34;5261491;28;20400;-73
2022/02/17 02:07:41;;;;;;;17.60;4.40;;;;;;;11.28;100.00;99472.53;5260377;28;20311;-73
2022/02/17 02:10:12;;;;;;;15.18;3.40;;;;;;;11.23;100.00;99471.44;5261799;28;20168;-73
2022/02/17 02:12:43;;;;;;;24.20;5.63;;;;;;;11.23;100.00;99458.31;5261242;28;20029;-72
2022/02/17 02:15:15;;;;;;;18.42;5.05;;;;;;;11.29;100.00;99486.47;5261508;28;20027;-72
2022/02/17 02:17:46;;;;;;;21.55;5.32;;;;;;;11.21;100.00;99489.94;5260713;28;20070;-72
2022/02/17 02:20:18;;;;;;;19.90;6.05;;;;;;;11.18;100.00;99500.78;5259770;28;20575;-72
2022/02/17 02:22:50;;;;;;;22.23;5.57;;;;;;;11.22;100.00;99509.94;5261454;28;20400;-72
2022/02/17 02:25:24;;;;;;;23.95;5.38;;;;;;;11.25;100.00;99520.09;5261603;28;20028;-72
2022/02/17 02:27:55;;;;;;;23.45;5.53;;;;;;;11.26;100.00;99516.47;5260597;28;20147;-72
2022/02/17 02:30:27;;;;;;;20.83;5.07;;;;;;;11.29;100.00;99538.91;5258672;28;20032;-72
2022/02/17 02:32:58;;;;;;;25.92;5.72;;;;;;;11.21;100.00;99542.34;5260238;28;20090;-72
2022/02/17 02:35:29;;;;;;;20.50;5.10;;;;;;;11.24;100.00;99528.09;5261698;28;20036;-72
2022/02/17 02:38:00;;;;;;;21.67;4.75;;;;;;;11.24;100.00;99534.16;5260617;28;20071;-72
2022/02/17 02:40:32;;;;;;;24.63;5.05;;;;;;;11.14;100.00;99555.34;5259121;28;20024;-72
2022/02/17 02:43:05;;;;;;;23.85;5.28;;;;;;;11.14;100.00;99551.91;5262275;28;20031;-72
2022/02/17 02:45:36;;;;;;;23.48;5.13;;;;;;;11.13;100.00;99548.44;5260036;28;20508;-72
2022/02/17 02:48:09;;;;;;;26.45;5.38;;;;;;;11.11;100.00;99544.34;5260954;28;20088;-72
2022/02/17 02:50:41;;;;;;;;;;;;;;;11.33;100.00;99563.84;5260130;28;20098;-72
2022/02/17 02:53:14;;;;;;;23.20;5.53;;;;;;;11.08;100.00;99623.31;5259146;28;19924;-72
2022/02/17 02:55:48;;;;;;;24.23;5.35;;;;;;;10.97;100.00;99616.59;5259458;28;20044;-72
2022/02/17 02:58:20;;;;;;;17.65;5.32;;;;;;;11.00;100.00;99631.16;5260291;28;20405;-72
2022/02/17 03:00:52;;;;;;;24.50;5.03;;;;;;;10.85;100.00;99620.50;5259699;28;20887;-72
2022/02/17 03:03:23;;;;;;;20.33;4.93;;;;;;;10.89;100.00;99620.00;5259327;28;20031;-72
2022/02/17 03:05:54;;;;;;;26.50;5.65;;;;;;;10.86;100.00;99624.75;5258212;28;20037;-72
2022/02/17 03:08:26;;;;;;;18.15;4.65;;;;;;;10.85;100.00;99634.44;5261339;28;20109;-72
2022/02/17 03:10:57;;;;;;;19.05;4.25;;;;;;;10.86;100.00;99603.78;5258410;28;20103;-72
2022/02/17 03:13:28;;;;;;;23.02;5.10;;;;;;;10.82;100.00;99629.50;5259292;28;20036;-72
2022/02/17 03:15:59;;;;;;;22.92;5.07;;;;;;;10.85;100.00;99631.81;5259318;28;20028;-72
2022/02/17 03:18:31;;;;;;;25.58;5.80;;;;;;;10.75;100.00;99632.94;5250969;28;20060;-72
2022/02/17 03:21:02;;;;;;;31.27;6.13;;;;;;;10.79;100.00;99644.72;5257499;28;20036;-71
2022/02/17 03:23:33;;;;;;;22.02;5.50;;;;;;;10.83;100.00;99659.94;5259839;28;20140;-72
2022/02/17 03:26:05;;;;;;;19.42;5.60;;;;;;;10.85;100.00;99663.25;5259713;28;21208;-72
2022/02/17 03:28:36;;;;;;;26.23;6.10;;;;;;;10.80;100.00;99672.59;5258928;28;20496;-72
2022/02/17 03:31:07;;;;;;;27.77;6.80;;;;;;;10.79;100.00;99668.31;5259473;28;20027;-72
2022/02/17 03:33:38;;;;;;;31.67;7.28;;;;;;;10.75;100.00;99686.13;5260761;28;20025;-72
2022/02/17 03:36:10;;;;;;;29.60;6.60;;;;;;;10.75;100.00;99691.38;5259508;28;20030;-72
2022/02/17 03:38:41;;;;;;;28.90;7.03;;;;;;;10.70;100.00;99704.13;5258915;28;20477;-72
2022/02/17 03:41:13;;;;;;;21.38;5.03;;;;;;;10.70;100.00;99678.75;5259451;28;20023;-72
2022/02/17 03:43:44;;;;;;;28.38;7.40;;;;;;;10.67;100.00;99686.13;5260550;28;20033;-72
2022/02/17 03:46:15;;;;;;;26.40;6.53;;;;;;;10.68;100.00;99685.97;5258474;28;20505;-72
2022/02/17 03:48:46;;;;;;;29.20;6.43;;;;;;;10.65;100.00;99678.44;5257850;28;20039;-72
2022/02/17 03:51:18;;;;;;;24.27;5.25;;;;;;;10.69;100.00;99692.03;5258804;28;20036;-72
2022/02/17 03:53:49;;;;;;;24.13;6.45;;;;;;;10.69;100.00;99715.59;5259358;28;20036;-72
2022/02/17 03:56:20;;;;;;;24.23;6.13;;;;;;;10.65;100.00;99720.34;5258434;28;20226;-72
2022/02/17 03:59:01;;;;;;;29.27;6.57;;;;;;;10.58;100.00;99710.66;5258823;28;20122;-72
2022/02/17 04:01:32;;;;;;;24.10;6.15;;;;;;;10.61;100.00;99705.09;5257447;28;20423;-72
2022/02/17 04:04:07;;;;;;;27.05;6.68;;;;;;;10.53;100.00;99719.00;5258489;28;20109;-72
2022/02/17 04:06:39;;;;;;;23.30;7.30;;;;;;;10.51;100.00;99726.16;5259253;28;20028;-72
2022/02/17 04:09:10;;;;;;;27.98;5.82;;;;;;;10.55;100.00;99722.25;5259090;28;20028;-72
2022/02/17 04:11:42;;;;;;;25.90;7.38;;;;;;;10.50;100.00;99728.94;5258487;28;20028;-72
2022/02/17 04:14:13;;;;;;;31.00;6.53;;;;;;;10.50;100.00;99726.34;5259341;28;20499;-72
2022/02/17 04:16:45;;;;;;;22.23;5.88;;;;;;;10.50;100.00;99731.56;5257630;28;20031;-72
2022/02/17 04:19:18;;;;;;;22.27;5.90;;;;;;;10.51;100.00;99741.88;5258227;28;20075;-72
2022/02/17 04:21:49;;;;;;;26.30;6.55;;;;;;;10.55;100.00;99758.91;5257135;28;20401;-72
2022/02/17 04:24:20;;;;;;;28.25;6.38;;;;;;;10.54;100.00;99732.91;5259023;28;20094;-72
2022/02/17 04:26:51;;;;;;;26.55;6.22;;;;;;;10.63;100.00;99760.75;5258168;28;20031;-72
2022/02/17 04:29:23;;;;;;;33.70;6.90;;;;;;;10.65;100.00;99787.63;5256105;28;20025;-72
2022/02/17 04:31:54;;;;;;;25.45;6.63;;;;;;;10.67;100.00;99777.78;5257021;28;20055;-72
2022/02/17 04:34:26;;;;;;;37.42;8.77;;;;;;;10.68;100.00;99782.03;5257569;28;20163;-72
2022/02/17 04:36:57;;;;;;;26.98;6.68;;;;;;;10.71;100.00;99779.13;5258425;28;20052;-72
2022/02/17 04:39:28;;;;;;;31.63;7.60;;;;;;;10.71;100.00;99792.22;5257217;28;20044;-72
2022/02/17 04:42:18;;;;;;;33.90;7.68;;;;;;;10.61;100.00;99834.25;5256234;28;20149;-72
2022/02/17 04:44:50;;;;;;;24.77;6.05;;;;;;;10.73;100.00;99816.47;5259041;28;20478;-72
2022/02/17 04:47:21;;;;;;;19.98;5.20;;;;;;;10.76;100.00;99818.78;5256978;28;20268;-72
2022/02/17 04:49:52;;;;;;;27.45;7.28;;;;;;;10.69;100.00;99830.88;5257994;28;20574;-72
2022/02/17 04:52:23;;;;;;;28.85;7.75;;;;;;;10.67;100.00;99851.97;5249583;28;20028;-72
2022/02/17 04:54:55;;;;;;;37.42;7.45;;;;;;;10.75;100.00;99853.81;5258195;28;20040;-73
2022/02/17 04:57:26;;;;;;;27.77;7.50;;;;;;;10.65;100.00;99829.53;5256134;28;20048;-72
2022/02/17 04:59:57;;;;;;;35.92;7.07;;;;;;;10.66;100.00;99854.75;5257608;28;20029;-72
2022/02/17 05:02:29;;;;;;;29.42;7.40;;;;;;;10.63;100.00;99858.47;5255636;28;20064;-73
2022/02/17 05:05:00;;;;;;;24.85;6.75;;;;;;;10.62;100.00;99862.09;5257386;28;20020;-74
2022/02/17 05:07:32;;;;;;;32.60;7.38;;;;;;;10.55;100.00;99882.00;5256691;28;20025;-73
2022/02/17 05:10:03;;;;;;;32.80;7.55;;;;;;;10.53;100.00;99846.47;5257215;28;20488;-72
2022/02/17 05:12:35;;;;;;;29.02;6.80;;;;;;;10.55;100.00;99868.91;5256769;28;20111;-73
2022/02/17 05:15:06;;;;;;;28.38;6.78;;;;;;;10.56;100.00;99880.22;5258982;28;20053;-72
2022/02/17 05:17:38;;;;;;;30.60;7.05;;;;;;;10.55;100.00;99891.66;5255727;28;20422;-73
2022/02/17 05:20:10;;;;;;;31.83;7.75;;;;;;;10.51;100.00;99880.66;5255344;28;20449;-72
2022/02/17 05:22:42;;;;;;;28.90;7.30;;;;;;;10.52;100.00;99889.34;5258630;28;20495;-72
2022/02/17 05:25:14;;;;;;;32.97;7.03;;;;;;;10.52;100.00;99907.69;5258148;28;20028;-72
2022/02/17 05:27:45;;;;;;;27.58;7.43;;;;;;;10.39;100.00;99887.94;5259994;28;20669;-72
2022/02/17 05:30:17;;;;;;;28.65;6.85;;;;;;;10.53;100.00;99923.25;5255856;28;20402;-72
2022/02/17 05:32:48;;;;;;;26.80;6.78;;;;;;;10.39;100.00;99898.44;5257698;28;20383;-72
2022/02/17 05:35:19;;;;;;;24.13;6.45;;;;;;;10.47;100.00;99916.00;5258519;28;20024;-72
2022/02/17 05:37:51;;;;;;;32.55;6.82;;;;;;;10.48;100.00;99917.63;5257827;28;20054;-72
2022/02/17 05:40:22;;;;;;;30.48;6.75;;;;;;;10.46;100.00;99936.13;5257259;28;20059;-72
2022/02/17 05:42:53;;;;;;;28.15;6.30;;;;;;;10.47;100.00;99935.16;5258367;28;20517;-71
2022/02/17 05:45:25;;;;;;;30.48;8.15;;;;;;;10.41;100.00;99925.25;5256794;28;20041;-71
2022/02/17 05:47:57;;;;;;;33.23;8.07;;;;;;;10.34;100.00;99949.59;5257330;28;20543;-72
2022/02/17 05:50:28;;;;;;;26.75;6.05;;;;;;;10.40;100.00;99969.94;5257103;28;20029;-72
2022/02/17 05:53:00;;;;;;;30.23;7.32;;;;;;;10.39;100.00;99948.19;5258679;28;20123;-72
2022/02/17 05:55:31;;;;;;;34.63;7.70;;;;;;;10.32;100.00;99965.47;5257792;28;20053;-72
2022/02/17 05:58:03;;;;;;;34.22;7.75;;;;;;;10.30;100.00;99949.06;5256746;28;20805;-72
2022/02/17 06:00:34;;;;;;;25.98;6.43;;;;;;;10.30;100.00;99959.53;5256558;28;20025;-72
2022/02/17 06:03:05;;;;;;;27.80;6.55;;;;;;;10.25;100.00;99961.78;5258964;28;20047;-72
2022/02/17 06:05:36;;;;;;;32.28;7.13;;;;;;;10.30;100.00;99969.19;5257226;28;20204;-72
2022/02/17 06:08:08;;;;;;;29.00;6.65;;;;;;;10.22;100.00;99980.38;5257440;28;20436;-72
2022/02/17 06:10:41;;;;;;;32.75;7.03;;;;;;;10.21;100.00;99987.41;5257221;28;20589;-72
2022/02/17 06:13:12;;;;;;;27.77;6.72;;;;;;;10.14;100.00;100003.84;5255502;28;20024;-71
2022/02/17 06:15:44;;;;;;;32.92;7.22;;;;;;;10.09;100.00;99985.16;5256982;28;20040;-72
2022/02/17 06:18:15;;;;;;;26.67;5.82;;;;;;;10.11;100.00;100017.22;5256181;28;20033;-72
2022/02/17 06:20:46;;;;;;;26.92;6.70;;;;;;;10.11;100.00;99998.91;5256748;28;20060;-72
2022/02/17 06:23:18;;;;;;;34.65;7.57;;;;;;;10.07;100.00;100021.94;5259760;28;20083;-72
2022/02/17 06:25:49;;;;;;;28.75;7.07;;;;;;;9.97;100.00;100008.91;5261175;28;20017;-72
2022/02/17 06:28:21;;;;;;;29.02;6.40;;;;;;;10.01;100.00;100026.94;5261000;28;20055;-72
2022/02/17 06:30:52;;;;;;;29.90;7.15;;;;;;;9.95;100.00;100037.00;5260991;28;20114;-73
2022/02/17 06:33:23;;;;;;;23.85;5.80;;;;;;;9.95;100.00;100028.34;5260182;28;20078;-72
2022/02/17 06:35:55;;;;;;;27.23;7.00;;;;;;;9.99;100.00;100046.22;5261525;28;20497;-72
2022/02/17 06:38:26;;;;;;;31.67;6.75;;;;;;;10.01;100.00;100050.50;5256759;28;20039;-72
2022/02/17 06:40:57;;;;;;;28.65;6.25;;;;;;;9.96;100.00;100049.16;5258538;28;20035;-72
2022/02/17 06:43:29;;;;;;;32.70;6.65;;;;;;;9.97;100.00;100063.06;5259519;28;20852;-72
2022/02/17 06:46:00;;;;;;;27.30;5.90;;;;;;;9.94;100.00;100072.00;5259823;28;20078;-73
2022/02/17 06:48:31;;;;;;;26.20;5.80;;;;;;;9.88;100.00;100069.13;5259900;28;20533;-72
2022/02/17 06:51:03;;;;;;;31.73;6.57;;;;;;;9.88;100.00;100088.28;5262367;28;20066;-72
2022/02/17 06:53:34;;;;;;;23.98;5.93;;;;;;;9.87;100.00;100080.56;5257014;28;20025;-72
2022/02/17 06:56:06;;;;;;;31.02;6.15;;;;;;;9.83;100.00;100082.66;5261469;28;20052;-73
2022/02/17 06:58:37;;;;;;;37.28;6.57;;;;;;;9.83;100.00;100095.75;5261437;28;20028;-72
2022/02/17 07:01:08;;;;;;;30.55;6.38;;;;;;;9.85;100.00;100111.28;5259577;28;20083;-72
2022/02/17 07:03:40;;;;;;;30.92;6.78;;;;;;;9.81;100.00;100121.22;5260687;28;20332;-72
2022/02/17 07:06:11;;;;;;;25.60;6.03;;;;;;;9.77;100.00;100121.63;5259687;28;20030;-71
2022/02/17 07:08:42;;;;;;;22.63;5.93;;;;;;;9.77;100.00;100146.00;5261149;28;20037;-72
2022/02/17 07:11:14;;;;;;;22.27;5.78;;;;;;;9.71;100.00;100130.88;5257371;28;20125;-74
2022/02/17 07:13:46;;;;;;;25.83;6.22;;;;;;;9.71;100.00;100136.94;5259003;28;20367;-75
2022/02/17 07:16:17;;;;;;;30.63;6.73;;;;;;;9.76;100.00;100144.34;5260871;28;20501;-74
2022/02/17 07:18:49;;;;;;;26.35;6.20;;;;;;;9.74;100.00;100147.13;5256639;28;20283;-74
2022/02/17 07:21:20;;;;;;;24.90;6.07;;;;;;;9.78;100.00;100158.13;5258426;28;20175;-74
2022/02/17 07:23:51;;;;;;;27.65;7.03;;;;;;;9.76;100.00;100160.06;5257878;28;20032;-71
2022/02/17 07:26:23;;;;;;;25.23;6.38;;;;;;;9.80;100.00;100156.19;5258322;28;20028;-72
2022/02/17 07:28:54;;;;;;;26.00;5.68;;;;;;;9.83;100.00;100170.78;5254607;28;20326;-71
2022/02/17 07:31:25;;;;;;;26.05;5.72;;;;;;;9.85;100.00;100180.16;5249174;28;20029;-71
2022/02/17 07:33:57;;;;;;;23.88;5.30;;;;;;;9.84;100.00;100186.31;5258375;28;20068;-71
2022/02/17 07:36:28;;;;;;;28.88;5.85;;;;;;;9.88;100.00;100202.56;5257832;28;20486;-71
2022/02/17 07:38:59;;;;;;;29.15;5.85;;;;;;;9.78;100.00;100194.75;5256453;28;20024;-71
2022/02/17 07:41:32;;;;;;;25.00;6.78;;;;;;;9.67;100.00;100210.59;5259079;28;20116;-72
2022/02/17 07:44:07;;;;;;;26.25;6.35;;;;;;;9.77;100.00;100206.16;5259518;28;20475;-71
2022/02/17 07:46:39;;;;;;;32.63;6.38;;;;;;;9.76;100.00;100217.59;5255889;28;20478;-71
2022/02/17 07:49:10;;;;;;;29.48;6.80;;;;;;;9.81;100.00;100230.25;5258937;28;20088;-71
2022/02/17 07:51:43;;;;;;;28.98;6.30;;;;;;;9.88;100.00;100236.59;5260377;28;20034;-71
2022/02/17 07:54:14;;;;;;;21.35;5.65;;;;;;;9.83;100.00;100237.00;5259162;28;20115;-71
2022/02/17 07:56:46;;;;;;;25.25;6.35;;;;;;;9.78;100.00;100254.09;5254813;28;20037;-71
2022/02/17 07:59:17;;;;;;;24.20;5.88;;;;;;;9.78;100.00;100241.84;5257077;28;20638;-71
2022/02/17 08:01:48;;;;;;;31.08;7.50;;;;;;;9.80;100.00;100241.69;5255526;28;20636;-72
2022/02/17 08:04:20;;;;;;;24.60;5.50;;;;;;;9.80;100.00;100267.84;5253539;28;20032;-72
2022/02/17 08:06:51;;;;;;;24.88;6.20;;;;;;;9.77;100.00;100258.47;5253696;28;20522;-72
2022/02/17 08:09:22;;;;;;;24.15;6.85;;;;;;;9.79;100.00;100266.22;5245170;28;20081;-74
2022/02/17 08:11:54;;;;;;;26.48;5.38;;;;;;;9.68;100.00;100267.19;5233522;28;20032;-72
2022/02/17 08:14:25;;;;;;;27.10;5.38;;;;;;;9.73;100.00;100284.09;5243114;28;20044;-72
2022/02/17 08:16:56;;;;;;;24.23;5.97;;;;;;;9.70;100.00;100271.31;5248416;28;20438;-72
2022/02/17 08:19:30;;;;;;;19.67;4.75;;;;;;;9.72;100.00;100281.63;5256649;28;20557;-71
2022/02/17 08:22:02;;;;;;;;;;;;;;;10.02;100.00;100293.72;5254823;28;20047;-72
2022/02/17 08:24:33;;;;;;;16.27;4.72;;;;;;;9.79;100.00;100292.38;5254456;28;19913;-72
2022/02/17 08:27:04;;;;;;;17.25;3.83;;;;;;;9.76;100.00;100296.09;5256502;28;20032;-71
2022/02/17 08:29:36;;;;;;;20.17;4.43;;;;;;;9.75;100.00;100300.50;5255938;28;20425;-72
2022/02/17 08:32:07;;;;;;;15.73;3.85;;;;;;;9.83;100.00;100314.69;5248950;28;20247;-72
2022/02/17 08:34:38;;;;;;;14.98;3.80;;;;;;;9.90;100.00;100321.84;5254832;28;20032;-72
2022/02/17 08:37:10;;;;;;;20.80;4.43;;;;;;;9.89;100.00;100314.97;5257091;28;20016;-73
2022/02/17 08:39:41;;;;;;;22.67;4.80;;;;;;;9.88;100.00;100336.81;5255700;28;20041;-71
2022/02/17 08:42:13;;;;;;;22.27;4.60;;;;;;;9.88;100.00;100333.38;5253626;28;20039;-71
2022/02/17 08:44:44;;;;;;;24.23;4.65;;;;;;;9.86;100.00;100324.88;5251255;28;20999;-72
2022/02/17 08:47:17;;;;;;;22.63;5.28;;;;;;;9.86;100.00;100330.94;5255127;28;20029;-72
2022/02/17 08:49:49;;;;;;;19.98;4.43;;;;;;;9.81;100.00;100330.53;5253824;28;20025;-72
2022/02/17 08:52:21;;;;;;;19.40;4.97;;;;;;;9.89;100.00;100348.97;5253705;28;20039;-72
2022/02/17 08:54:52;;;;;;;17.08;3.60;;;;;;;9.89;100.00;100353.38;5254760;28;20028;-72
2022/02/17 08:57:23;;;;;;;15.35;4.82;;;;;;;9.84;100.00;100345.91;5254003;28;20088;-72
2022/02/17 08:59:55;;;;;;;20.40;4.97;;;;;;;9.82;100.00;100357.50;5255768;28;20041;-72
2022/02/17 09:02:26;;;;;;;16.77;4.22;;;;;;;9.83;100.00;100359.97;5252912;28;20033;-72
2022/02/17 09:04:57;;;;;;;12.77;3.05;;;;;;;9.91;100.00;100377.59;5253705;28;20036;-72
2022/02/17 09:07:29;;;;;;;15.38;3.13;;;;;;;9.95;100.00;100377.19;5253043;28;20462;-71
2022/02/17 09:10:01;;;;;;;13.75;3.33;;;;;;;10.03;100.00;100396.59;5250025;28;20510;-72
2022/02/17 09:12:34;;;;;;;17.35;3.60;;;;;;;10.03;100.00;100402.66;5252384;28;20505;-72
2022/02/17 09:15:06;;;;;;;16.38;3.83;;;;;;;9.98;100.00;100390.00;5253637;28;20460;-74
2022/02/17 09:17:37;;;;;;;13.13;3.42;;;;;;;10.01;100.00;100401.16;5253007;28;20495;-74
2022/02/17 09:20:11;;;;;;;14.52;3.05;;;;;;;10.09;100.00;100412.59;5250985;28;20032;-74
2022/02/17 09:22:43;;;;;;;;;;;;;;;10.39;100.00;100409.03;5253129;28;20098;-74
2022/02/17 09:25:14;;;;;;;12.73;3.65;;;;;;;10.07;100.00;100403.22;5249645;28;19920;-74
2022/02/17 09:27:45;;;;;;;14.63;3.20;;;;;;;10.14;100.00;100414.78;5254832;28;20016;-74
2022/02/17 09:30:17;;;;;;;11.98;3.60;;;;;;;10.22;100.00;100423.59;5253034;28;20036;-74
2022/02/17 09:32:48;;;;;;;16.35;3.15;;;;;;;10.28;100.00;100427.50;5256707;28;20121;-74
2022/02/17 09:35:19;;;;;;;14.10;3.58;;;;;;;10.24;100.00;100442.63;5255449;28;20039;-72
2022/02/17 09:37:51;;;;;;;18.90;4.35;;;;;;;10.23;100.00;100421.84;5251808;28;20065;-72
2022/02/17 09:40:23;;;;;;;15.95;4.13;;;;;;;10.28;100.00;100435.38;5251748;28;20405;-72
2022/02/17 09:42:55;;;;;;;24.23;4.57;;;;;;;10.36;100.00;100448.59;5253986;28;20025;-71
2022/02/17 09:45:26;;;;;;;16.98;3.22;;;;;;;10.40;100.00;100462.22;5252868;28;20036;-71
2022/02/17 09:47:58;;;;;;;17.02;3.75;;;;;;;10.39;100.00;100463.22;5252278;28;20848;-72
2022/02/17 09:50:30;;;;;;;14.65;3.33;;;;;;;10.48;100.00;100462.38;5254856;28;20040;-72
2022/02/17 09:53:02;;;;;;;14.20;3.53;;;;;;;10.47;100.00;100458.91;5252350;28;20028;-72
2022/02/17 09:55:34;;;;;;;13.43;2.85;;;;;;;10.55;100.00;100479.19;5256074;28;20020;-72
2022/02/17 09:58:05;;;;;;;16.25;3.67;;;;;;;10.61;100.00;100483.06;5258517;28;21290;-72
2022/02/17 10:00:37;;;;;;;14.45;3.28;;;;;;;10.60;100.00;100489.22;5258055;28;20503;-72
2022/02/17 10:03:26;;;;;;;15.35;3.40;;;;;;;10.65;100.00;100495.72;5260286;28;20024;-72
2022/02/17 10:06:09;;;;;;;16.75;3.58;;;;;;;10.79;100.00;100498.88;5259298;28;20107;-72
2022/02/17 10:08:41;;;;;;;18.23;3.72;;;;;;;10.80;100.00;100509.22;5260062;28;20020;-72
2022/02/17 10:11:31;;;;;;;14.15;2.72;;;;;;;10.76;100.00;100510.47;5257992;28;20052;-72
2022/02/17 10:14:04;;;;;;;12.10;2.78;;;;;;;10.60;100.00;100504.94;5256874;28;20043;-72
2022/02/17 10:17:00;;;;;;;11.50;2.55;;;;;;;10.71;100.00;100536.25;5258584;28;20039;-72
2022/02/17 10:19:50;;;;;;;11.40;2.33;;;;;;;10.83;100.00;100519.41;5251911;28;20045;-72
2022/02/17 10:22:30;;;;;;;11.63;2.45;;;;;;;10.71;100.00;100520.53;5258554;28;20241;-72
2022/02/17 10:25:02;;;;;;;8.35;2.20;;;;;;;10.81;100.00;100531.84;5257281;28;20176;-72
2022/02/17 10:27:33;;;;;;;12.60;2.20;;;;;;;10.86;100.00;100542.72;5257548;28;20090;-72
2022/02/17 10:30:13;;;;;;;8.73;2.25;;;;;;;10.93;100.00;100545.63;5256780;28;20560;-72
2022/02/17 10:32:56;;;;;;;10.43;1.75;;;;;;;10.96;100.00;100561.06;5258294;28;20047;-72
2022/02/17 10:35:28;;;;;;;;;;;;;;;11.19;100.00;100561.59;5259706;28;20021;-72
2022/02/17 10:38:01;;;;;;;8.75;2.13;;;;;;;10.85;100.00;100553.34;5258173;28;19927;-72
2022/02/17 10:40:34;;;;;;;;;;;;;;;11.28;100.00;100568.59;5257650;28;20029;-72
2022/02/17 10:43:10;;;;;;;11.02;2.50;;;;;;;10.90;100.00;100557.19;5257558;28;19916;-72
2022/02/17 10:45:44;;;;;;;8.73;1.70;;;;;;;11.01;100.00;100566.72;5257521;28;20056;-72
2022/02/17 10:48:21;;;;;;;10.50;2.13;;;;;;;10.90;100.00;100564.25;5260227;28;20017;-72
2022/02/17 10:51:11;;;;;;;9.13;1.75;;;;;;;11.07;100.00;100576.66;5256409;28;20064;-71
2022/02/17 10:53:45;;;;;;;7.85;1.65;;;;;;;10.92;100.00;100578.03;5258005;28;20115;-72
2022/02/17 10:56:22;;;;;;;7.07;1.48;;;;;;;11.02;100.00;100584.09;5254988;28;20525;-72
2022/02/17 10:58:59;;;;;;;7.28;1.75;;;;;;;11.09;100.00;100579.13;5259891;28;20045;-72
2022/02/17 11:01:31;;;;;;;5.97;1.50;;;;;;;10.98;100.00;100580.09;5257919;28;20082;-72
2022/02/17 11:04:02;;;;;;;6.32;1.90;;;;;;;10.99;100.00;100591.44;5256362;28;20244;-72
2022/02/17 11:06:35;;;;;;;6.82;1.88;;;;;;;10.93;100.00;100596.25;5264516;28;20028;-72
2022/02/17 11:09:07;;;;;;;8.73;1.90;;;;;;;11.05;100.00;100599.53;5290052;22;20080;-76
2022/02/17 11:11:39;;;;;;;8.38;1.90;;;;;;;11.09;100.00;100610.59;5279577;28;20071;-75
2022/02/17 11:14:10;;;;;;;9.73;1.95;;;;;;;11.16;100.00;100611.69;5276075;28;20441;-75
2022/02/17 11:16:42;;;;;;;9.27;2.30;;;;;;;11.12;100.00;100607.69;5273482;28;20112;-76
2022/02/17 11:19:13;;;;;;;12.95;2.55;;;;;;;11.03;100.00;100611.16;5293280;28;20059;-74
2022/02/17 11:21:44;;;;;;;10.35;2.70;;;;;;;10.95;100.00;100630.19;5295351;28;20434;-74
2022/02/17 11:24:15;;;;;;;15.18;3.53;;;;;;;11.00;100.00;100622.72;5295613;28;20027;-75
2022/02/17 11:27:00;;;;;;;12.88;3.20;;;;;;;11.17;100.00;100611.56;5296163;28;20032;-75
2022/02/17 11:29:33;;;;;;;13.60;3.20;;;;;;;11.28;100.00;100617.59;5296470;28;20024;-75
2022/02/17 11:32:07;;;;;;;10.20;2.70;;;;;;;11.42;100.00;100614.56;5296200;28;20076;-74
2022/02/17 11:34:53;;;;;;;11.20;2.67;;;;;;;11.39;100.00;100634.00;5294852;28;20481;-75
2022/02/17 11:37:54;;;;;;;12.38;2.88;;;;;;;11.32;100.00;100627.66;5294345;28;20528;-75
2022/02/17 11:40:25;;;;;;;12.20;2.60;;;;;;;11.14;100.00;100629.38;5282629;28;20056;-74